sensor_id;sensor_type;location;lat;lon;timestamp;P1;durP1;ratioP1;P2;durP2;ratioP2
57923;SDS011;43737;50.632;3.070;2022-07-17T00:02:17;6.03;;;2.60;;
57923;SDS011;43737;50.632;3.070;2022-07-17T00:04:43;7.45;;;2.00;;
57923;SDS011;43737;50.632;3.070;2022-07-17T00:07:09;7.05;;;2.58;;
57923;SDS011;43737;50.632;3.070;2022-07-17T00:09:35;8.65;;;2.67;;
57923;SDS011;43737;50.632;3.070;2022-07-17T00:12:01;5.13;;;2.03;;
57923;SDS011;43737;50.632;3.070;2022-07-17T00:14:27;8.02;;;2.55;;
57923;SDS011;43737;50.632;3.070;2022-07-17T00:16:54;5.55;;;2.50;;
57923;SDS011;43737;50.632;3.070;2022-07-17T00:19:20;5.35;;;2.20;;
57923;SDS011;43737;50.632;3.070;2022-07-17T00:21:46;9.43;;;2.50;;
57923;SDS011;43737;50.632;3.070;2022-07-17T00:24:12;4.63;;;2.53;;
57923;SDS011;43737;50.632;3.070;2022-07-17T00:26:44;5.78;;;2.38;;
57923;SDS011;43737;50.632;3.070;2022-07-17T00:29:10;8.00;;;2.75;;
57923;SDS011;43737;50.632;3.070;2022-07-17T00:31:36;4.45;;;2.35;;
57923;SDS011;43737;50.632;3.070;2022-07-17T00:34:02;6.57;;;2.10;;
57923;SDS011;43737;50.632;3.070;2022-07-17T00:36:28;3.58;;;1.92;;
57923;SDS011;43737;50.632;3.070;2022-07-17T00:38:54;4.57;;;2.05;;
57923;SDS011;43737;50.632;3.070;2022-07-17T00:41:20;9.15;;;2.38;;
57923;SDS011;43737;50.632;3.070;2022-07-17T00:43:46;7.97;;;2.28;;
57923;SDS011;43737;50.632;3.070;2022-07-17T00:46:13;6.70;;;2.50;;
57923;SDS011;43737;50.632;3.070;2022-07-17T00:48:39;6.30;;;2.40;;
57923;SDS011;43737;50.632;3.070;2022-07-17T00:51:05;6.28;;;2.20;;
57923;SDS011;43737;50.632;3.070;2022-07-17T00:53:32;7.40;;;2.10;;
57923;SDS011;43737;50.632;3.070;2022-07-17T00:56:00;4.47;;;2.15;;
57923;SDS011;43737;50.632;3.070;2022-07-17T00:58:27;6.63;;;2.30;;
57923;SDS011;43737;50.632;3.070;2022-07-17T01:00:55;9.65;;;2.47;;
57923;SDS011;43737;50.632;3.070;2022-07-17T01:03:24;4.75;;;2.22;;
57923;SDS011;43737;50.632;3.070;2022-07-17T01:05:50;3.97;;;2.60;;
57923;SDS011;43737;50.632;3.070;2022-07-17T01:08:16;4.68;;;2.55;;
57923;SDS011;43737;50.632;3.070;2022-07-17T01:10:42;8.65;;;2.50;;
57923;SDS011;43737;50.632;3.070;2022-07-17T01:13:08;8.27;;;2.90;;
57923;SDS011;43737;50.632;3.070;2022-07-17T01:15:38;5.25;;;2.38;;
57923;SDS011;43737;50.632;3.070;2022-07-17T01:18:09;7.18;;;2.67;;
57923;SDS011;43737;50.632;3.070;2022-07-17T01:20:36;6.45;;;2.13;;
57923;SDS011;43737;50.632;3.070;2022-07-17T01:23:02;4.25;;;2.20;;
57923;SDS011;43737;50.632;3.070;2022-07-17T01:25:28;6.95;;;2.30;;
57923;SDS011;43737;50.632;3.070;2022-07-17T01:27:54;8.40;;;2.42;;
57923;SDS011;43737;50.632;3.070;2022-07-17T01:30:21;4.80;;;2.30;;
57923;SDS011;43737;50.632;3.070;2022-07-17T01:32:47;3.95;;;2.28;;
57923;SDS011;43737;50.632;3.070;2022-07-17T01:35:14;6.80;;;2.33;;
57923;SDS011;43737;50.632;3.070;2022-07-17T01:37:40;9.07;;;2.45;;
57923;SDS011;43737;50.632;3.070;2022-07-17T01:40:07;8.00;;;2.80;;
57923;SDS011;43737;50.632;3.070;2022-07-17T01:42:34;4.70;;;2.42;;
57923;SDS011;43737;50.632;3.070;2022-07-17T01:45:00;4.30;;;2.17;;
57923;SDS011;43737;50.632;3.070;2022-07-17T01:47:26;7.70;;;2.97;;
57923;SDS011;43737;50.632;3.070;2022-07-17T01:49:53;8.73;;;2.35;;
57923;SDS011;43737;50.632;3.070;2022-07-17T01:52:20;5.22;;;3.08;;
57923;SDS011;43737;50.632;3.070;2022-07-17T01:54:47;5.25;;;2.65;;
57923;SDS011;43737;50.632;3.070;2022-07-17T01:57:13;6.78;;;2.50;;
57923;SDS011;43737;50.632;3.070;2022-07-17T01:59:40;5.75;;;2.42;;
57923;SDS011;43737;50.632;3.070;2022-07-17T02:02:06;5.38;;;2.70;;
57923;SDS011;43737;50.632;3.070;2022-07-17T02:04:33;5.70;;;2.90;;
57923;SDS011;43737;50.632;3.070;2022-07-17T02:06:59;8.07;;;3.33;;
57923;SDS011;43737;50.632;3.070;2022-07-17T02:09:25;5.15;;;2.63;;
57923;SDS011;43737;50.632;3.070;2022-07-17T02:11:51;4.25;;;2.22;;
57923;SDS011;43737;50.632;3.070;2022-07-17T02:14:17;6.40;;;2.53;;
57923;SDS011;43737;50.632;3.070;2022-07-17T02:16:43;9.75;;;2.90;;
57923;SDS011;43737;50.632;3.070;2022-07-17T02:19:10;5.90;;;2.70;;
57923;SDS011;43737;50.632;3.070;2022-07-17T02:21:36;9.88;;;2.75;;
57923;SDS011;43737;50.632;3.070;2022-07-17T02:24:02;5.50;;;2.70;;
57923;SDS011;43737;50.632;3.070;2022-07-17T02:26:28;4.95;;;2.58;;
57923;SDS011;43737;50.632;3.070;2022-07-17T02:28:54;6.10;;;2.83;;
57923;SDS011;43737;50.632;3.070;2022-07-17T02:31:20;4.35;;;2.63;;
57923;SDS011;43737;50.632;3.070;2022-07-17T02:33:46;4.28;;;2.30;;
57923;SDS011;43737;50.632;3.070;2022-07-17T02:36:13;8.85;;;3.33;;
57923;SDS011;43737;50.632;3.070;2022-07-17T02:38:39;5.53;;;2.80;;
57923;SDS011;43737;50.632;3.070;2022-07-17T02:41:05;5.25;;;2.50;;
57923;SDS011;43737;50.632;3.070;2022-07-17T02:43:31;8.48;;;3.00;;
57923;SDS011;43737;50.632;3.070;2022-07-17T02:45:57;4.47;;;2.67;;
57923;SDS011;43737;50.632;3.070;2022-07-17T02:48:23;6.45;;;3.03;;
57923;SDS011;43737;50.632;3.070;2022-07-17T02:50:49;8.45;;;2.88;;
57923;SDS011;43737;50.632;3.070;2022-07-17T02:53:15;6.07;;;2.85;;
57923;SDS011;43737;50.632;3.070;2022-07-17T02:55:41;7.85;;;2.95;;
57923;SDS011;43737;50.632;3.070;2022-07-17T02:58:07;4.97;;;2.63;;
57923;SDS011;43737;50.632;3.070;2022-07-17T03:00:33;8.13;;;3.00;;
57923;SDS011;43737;50.632;3.070;2022-07-17T03:02:59;8.77;;;2.75;;
57923;SDS011;43737;50.632;3.070;2022-07-17T03:05:25;6.88;;;3.05;;
57923;SDS011;43737;50.632;3.070;2022-07-17T03:07:51;6.90;;;2.75;;
57923;SDS011;43737;50.632;3.070;2022-07-17T03:10:17;10.45;;;2.88;;
57923;SDS011;43737;50.632;3.070;2022-07-17T03:12:43;6.32;;;2.90;;
57923;SDS011;43737;50.632;3.070;2022-07-17T03:15:10;5.80;;;2.70;;
57923;SDS011;43737;50.632;3.070;2022-07-17T03:17:37;7.22;;;2.70;;
57923;SDS011;43737;50.632;3.070;2022-07-17T03:20:04;6.80;;;2.80;;
57923;SDS011;43737;50.632;3.070;2022-07-17T03:22:30;7.97;;;3.13;;
57923;SDS011;43737;50.632;3.070;2022-07-17T03:24:56;5.13;;;2.42;;
57923;SDS011;43737;50.632;3.070;2022-07-17T03:27:22;6.55;;;2.97;;
57923;SDS011;43737;50.632;3.070;2022-07-17T03:29:48;6.43;;;3.08;;
57923;SDS011;43737;50.632;3.070;2022-07-17T03:32:14;7.38;;;2.70;;
57923;SDS011;43737;50.632;3.070;2022-07-17T03:34:40;9.50;;;2.97;;
57923;SDS011;43737;50.632;3.070;2022-07-17T03:37:06;7.32;;;2.83;;
57923;SDS011;43737;50.632;3.070;2022-07-17T03:39:32;8.70;;;3.00;;
57923;SDS011;43737;50.632;3.070;2022-07-17T03:41:58;9.32;;;3.28;;
57923;SDS011;43737;50.632;3.070;2022-07-17T03:44:24;9.68;;;3.20;;
57923;SDS011;43737;50.632;3.070;2022-07-17T03:46:50;14.93;;;3.47;;
57923;SDS011;43737;50.632;3.070;2022-07-17T03:49:16;8.48;;;2.80;;
57923;SDS011;43737;50.632;3.070;2022-07-17T03:51:42;7.03;;;3.10;;
57923;SDS011;43737;50.632;3.070;2022-07-17T03:54:08;7.15;;;2.90;;
57923;SDS011;43737;50.632;3.070;2022-07-17T03:56:34;7.50;;;3.22;;
57923;SDS011;43737;50.632;3.070;2022-07-17T03:59:00;6.00;;;3.08;;
57923;SDS011;43737;50.632;3.070;2022-07-17T04:01:26;5.85;;;2.78;;
57923;SDS011;43737;50.632;3.070;2022-07-17T04:03:52;6.47;;;2.60;;
57923;SDS011;43737;50.632;3.070;2022-07-17T04:06:18;4.68;;;2.83;;
57923;SDS011;43737;50.632;3.070;2022-07-17T04:08:44;5.68;;;2.80;;
57923;SDS011;43737;50.632;3.070;2022-07-17T04:11:10;6.05;;;2.90;;
57923;SDS011;43737;50.632;3.070;2022-07-17T04:13:37;14.85;;;3.17;;
57923;SDS011;43737;50.632;3.070;2022-07-17T04:16:03;8.98;;;3.25;;
57923;SDS011;43737;50.632;3.070;2022-07-17T04:18:30;6.40;;;3.20;;
57923;SDS011;43737;50.632;3.070;2022-07-17T04:20:58;12.60;;;3.67;;
57923;SDS011;43737;50.632;3.070;2022-07-17T04:23:24;6.90;;;2.97;;
57923;SDS011;43737;50.632;3.070;2022-07-17T04:25:51;7.50;;;3.50;;
57923;SDS011;43737;50.632;3.070;2022-07-17T04:28:17;6.45;;;2.72;;
57923;SDS011;43737;50.632;3.070;2022-07-17T04:30:43;8.82;;;3.20;;
57923;SDS011;43737;50.632;3.070;2022-07-17T04:33:10;9.25;;;3.00;;
57923;SDS011;43737;50.632;3.070;2022-07-17T04:35:36;8.02;;;2.53;;
57923;SDS011;43737;50.632;3.070;2022-07-17T04:38:03;6.18;;;2.83;;
57923;SDS011;43737;50.632;3.070;2022-07-17T04:40:29;7.88;;;3.10;;
57923;SDS011;43737;50.632;3.070;2022-07-17T04:42:56;4.60;;;2.78;;
57923;SDS011;43737;50.632;3.070;2022-07-17T04:45:22;4.63;;;2.30;;
57923;SDS011;43737;50.632;3.070;2022-07-17T04:47:48;5.88;;;3.05;;
57923;SDS011;43737;50.632;3.070;2022-07-17T04:50:14;11.82;;;2.83;;
57923;SDS011;43737;50.632;3.070;2022-07-17T04:52:40;7.25;;;2.40;;
57923;SDS011;43737;50.632;3.070;2022-07-17T04:55:06;9.77;;;2.88;;
57923;SDS011;43737;50.632;3.070;2022-07-17T04:57:33;8.73;;;3.10;;
57923;SDS011;43737;50.632;3.070;2022-07-17T04:59:59;5.55;;;2.63;;
57923;SDS011;43737;50.632;3.070;2022-07-17T05:02:25;6.10;;;2.90;;
57923;SDS011;43737;50.632;3.070;2022-07-17T05:04:51;4.43;;;2.45;;
57923;SDS011;43737;50.632;3.070;2022-07-17T05:07:17;5.82;;;2.95;;
57923;SDS011;43737;50.632;3.070;2022-07-17T05:09:43;7.65;;;3.03;;
57923;SDS011;43737;50.632;3.070;2022-07-17T05:12:09;9.15;;;3.17;;
57923;SDS011;43737;50.632;3.070;2022-07-17T05:14:35;7.15;;;3.10;;
57923;SDS011;43737;50.632;3.070;2022-07-17T05:17:01;8.85;;;3.08;;
57923;SDS011;43737;50.632;3.070;2022-07-17T05:19:27;7.65;;;2.75;;
57923;SDS011;43737;50.632;3.070;2022-07-17T05:21:53;9.45;;;3.20;;
57923;SDS011;43737;50.632;3.070;2022-07-17T05:24:19;7.32;;;2.80;;
57923;SDS011;43737;50.632;3.070;2022-07-17T05:26:45;6.68;;;3.33;;
57923;SDS011;43737;50.632;3.070;2022-07-17T05:29:12;6.45;;;3.22;;
57923;SDS011;43737;50.632;3.070;2022-07-17T05:31:38;6.05;;;2.80;;
57923;SDS011;43737;50.632;3.070;2022-07-17T05:34:04;8.50;;;2.97;;
57923;SDS011;43737;50.632;3.070;2022-07-17T05:36:30;4.18;;;2.45;;
57923;SDS011;43737;50.632;3.070;2022-07-17T05:38:56;10.02;;;3.20;;
57923;SDS011;43737;50.632;3.070;2022-07-17T05:41:22;8.93;;;2.88;;
57923;SDS011;43737;50.632;3.070;2022-07-17T05:43:48;7.43;;;2.88;;
57923;SDS011;43737;50.632;3.070;2022-07-17T05:46:14;13.00;;;3.42;;
57923;SDS011;43737;50.632;3.070;2022-07-17T05:48:40;7.32;;;2.70;;
57923;SDS011;43737;50.632;3.070;2022-07-17T05:51:06;7.63;;;2.60;;
57923;SDS011;43737;50.632;3.070;2022-07-17T05:53:32;8.13;;;3.00;;
57923;SDS011;43737;50.632;3.070;2022-07-17T05:55:58;4.50;;;2.50;;
57923;SDS011;43737;50.632;3.070;2022-07-17T05:58:24;10.20;;;2.90;;
57923;SDS011;43737;50.632;3.070;2022-07-17T06:00:50;8.15;;;2.83;;
57923;SDS011;43737;50.632;3.070;2022-07-17T06:03:17;6.82;;;2.72;;
57923;SDS011;43737;50.632;3.070;2022-07-17T06:05:43;6.45;;;2.40;;
57923;SDS011;43737;50.632;3.070;2022-07-17T06:08:09;8.25;;;3.13;;
57923;SDS011;43737;50.632;3.070;2022-07-17T06:10:35;8.60;;;2.90;;
57923;SDS011;43737;50.632;3.070;2022-07-17T06:13:03;9.13;;;2.60;;
57923;SDS011;43737;50.632;3.070;2022-07-17T06:15:29;6.80;;;3.20;;
57923;SDS011;43737;50.632;3.070;2022-07-17T06:17:54;7.95;;;2.58;;
57923;SDS011;43737;50.632;3.070;2022-07-17T06:20:20;7.30;;;2.83;;
57923;SDS011;43737;50.632;3.070;2022-07-17T06:22:46;6.07;;;2.72;;
57923;SDS011;43737;50.632;3.070;2022-07-17T06:25:13;6.15;;;2.53;;
57923;SDS011;43737;50.632;3.070;2022-07-17T06:27:39;9.93;;;2.50;;
57923;SDS011;43737;50.632;3.070;2022-07-17T06:30:06;7.78;;;2.42;;
57923;SDS011;43737;50.632;3.070;2022-07-17T06:32:32;11.40;;;3.00;;
57923;SDS011;43737;50.632;3.070;2022-07-17T06:34:58;6.57;;;2.80;;
57923;SDS011;43737;50.632;3.070;2022-07-17T06:37:24;9.05;;;2.40;;
57923;SDS011;43737;50.632;3.070;2022-07-17T06:39:50;5.95;;;2.47;;
57923;SDS011;43737;50.632;3.070;2022-07-17T06:42:16;10.20;;;3.25;;
57923;SDS011;43737;50.632;3.070;2022-07-17T06:44:42;6.60;;;2.67;;
57923;SDS011;43737;50.632;3.070;2022-07-17T06:47:08;9.30;;;2.30;;
57923;SDS011;43737;50.632;3.070;2022-07-17T06:49:34;9.30;;;2.88;;
57923;SDS011;43737;50.632;3.070;2022-07-17T06:52:00;10.60;;;2.90;;
57923;SDS011;43737;50.632;3.070;2022-07-17T06:54:26;7.35;;;2.70;;
57923;SDS011;43737;50.632;3.070;2022-07-17T06:56:53;11.10;;;2.85;;
57923;SDS011;43737;50.632;3.070;2022-07-17T06:59:19;7.75;;;2.20;;
57923;SDS011;43737;50.632;3.070;2022-07-17T07:01:45;8.40;;;2.75;;
57923;SDS011;43737;50.632;3.070;2022-07-17T07:04:12;7.50;;;2.50;;
57923;SDS011;43737;50.632;3.070;2022-07-17T07:06:38;7.45;;;2.30;;
57923;SDS011;43737;50.632;3.070;2022-07-17T07:09:04;4.00;;;2.15;;
57923;SDS011;43737;50.632;3.070;2022-07-17T07:11:30;7.28;;;2.40;;
57923;SDS011;43737;50.632;3.070;2022-07-17T07:13:56;6.55;;;2.30;;
57923;SDS011;43737;50.632;3.070;2022-07-17T07:16:22;6.45;;;2.40;;
57923;SDS011;43737;50.632;3.070;2022-07-17T07:18:48;5.57;;;2.35;;
57923;SDS011;43737;50.632;3.070;2022-07-17T07:21:14;9.20;;;2.90;;
57923;SDS011;43737;50.632;3.070;2022-07-17T07:23:40;8.63;;;2.92;;
57923;SDS011;43737;50.632;3.070;2022-07-17T07:26:06;9.30;;;2.60;;
57923;SDS011;43737;50.632;3.070;2022-07-17T07:28:32;7.60;;;2.70;;
57923;SDS011;43737;50.632;3.070;2022-07-17T07:30:59;9.38;;;2.10;;
57923;SDS011;43737;50.632;3.070;2022-07-17T07:33:25;8.90;;;2.90;;
57923;SDS011;43737;50.632;3.070;2022-07-17T07:35:51;6.47;;;2.50;;
57923;SDS011;43737;50.632;3.070;2022-07-17T07:38:17;5.30;;;2.47;;
57923;SDS011;43737;50.632;3.070;2022-07-17T07:40:43;6.97;;;2.55;;
57923;SDS011;43737;50.632;3.070;2022-07-17T07:43:09;7.72;;;2.58;;
57923;SDS011;43737;50.632;3.070;2022-07-17T07:45:35;6.53;;;2.30;;
57923;SDS011;43737;50.632;3.070;2022-07-17T07:48:01;6.07;;;2.60;;
57923;SDS011;43737;50.632;3.070;2022-07-17T07:50:27;4.65;;;2.20;;
57923;SDS011;43737;50.632;3.070;2022-07-17T07:52:53;9.70;;;2.20;;
57923;SDS011;43737;50.632;3.070;2022-07-17T07:55:20;5.88;;;2.13;;
57923;SDS011;43737;50.632;3.070;2022-07-17T07:57:46;6.10;;;2.25;;
57923;SDS011;43737;50.632;3.070;2022-07-17T08:00:13;7.25;;;2.25;;
57923;SDS011;43737;50.632;3.070;2022-07-17T08:02:39;5.38;;;2.30;;
57923;SDS011;43737;50.632;3.070;2022-07-17T08:05:05;8.02;;;2.65;;
57923;SDS011;43737;50.632;3.070;2022-07-17T08:07:31;7.00;;;2.22;;
57923;SDS011;43737;50.632;3.070;2022-07-17T08:10:00;7.72;;;2.10;;
57923;SDS011;43737;50.632;3.070;2022-07-17T08:12:26;6.97;;;2.10;;
57923;SDS011;43737;50.632;3.070;2022-07-17T08:14:54;5.80;;;2.47;;
57923;SDS011;43737;50.632;3.070;2022-07-17T08:17:20;7.78;;;2.50;;
57923;SDS011;43737;50.632;3.070;2022-07-17T08:19:46;4.90;;;2.40;;
57923;SDS011;43737;50.632;3.070;2022-07-17T08:22:12;4.68;;;1.88;;
57923;SDS011;43737;50.632;3.070;2022-07-17T08:24:38;9.27;;;2.38;;
57923;SDS011;43737;50.632;3.070;2022-07-17T08:27:04;5.18;;;2.17;;
57923;SDS011;43737;50.632;3.070;2022-07-17T08:29:30;4.80;;;1.98;;
57923;SDS011;43737;50.632;3.070;2022-07-17T08:31:56;6.07;;;2.10;;
57923;SDS011;43737;50.632;3.070;2022-07-17T08:34:22;5.57;;;1.70;;
57923;SDS011;43737;50.632;3.070;2022-07-17T08:36:48;5.10;;;1.98;;
57923;SDS011;43737;50.632;3.070;2022-07-17T08:39:15;3.33;;;1.80;;
57923;SDS011;43737;50.632;3.070;2022-07-17T08:41:41;3.35;;;1.65;;
57923;SDS011;43737;50.632;3.070;2022-07-17T08:44:07;4.35;;;2.30;;
57923;SDS011;43737;50.632;3.070;2022-07-17T08:46:35;4.40;;;1.60;;
57923;SDS011;43737;50.632;3.070;2022-07-17T08:49:01;1.95;;;1.70;;
57923;SDS011;43737;50.632;3.070;2022-07-17T08:51:28;1.90;;;1.75;;
57923;SDS011;43737;50.632;3.070;2022-07-17T08:53:54;4.13;;;1.92;;
57923;SDS011;43737;50.632;3.070;2022-07-17T08:56:20;6.10;;;1.83;;
57923;SDS011;43737;50.632;3.070;2022-07-17T08:58:47;4.05;;;2.00;;
57923;SDS011;43737;50.632;3.070;2022-07-17T09:01:13;4.57;;;1.90;;
57923;SDS011;43737;50.632;3.070;2022-07-17T09:03:39;5.70;;;2.08;;
57923;SDS011;43737;50.632;3.070;2022-07-17T09:06:17;4.43;;;2.20;;
57923;SDS011;43737;50.632;3.070;2022-07-17T09:08:43;2.28;;;1.85;;
57923;SDS011;43737;50.632;3.070;2022-07-17T09:11:09;2.83;;;2.03;;
57923;SDS011;43737;50.632;3.070;2022-07-17T09:13:35;5.13;;;1.83;;
57923;SDS011;43737;50.632;3.070;2022-07-17T09:16:08;2.58;;;1.95;;
57923;SDS011;43737;50.632;3.070;2022-07-17T09:18:49;4.47;;;2.50;;
57923;SDS011;43737;50.632;3.070;2022-07-17T09:21:19;2.40;;;1.88;;
57923;SDS011;43737;50.632;3.070;2022-07-17T09:23:45;4.22;;;2.25;;
57923;SDS011;43737;50.632;3.070;2022-07-17T09:26:11;10.15;;;2.65;;
57923;SDS011;43737;50.632;3.070;2022-07-17T09:28:44;4.57;;;2.22;;
57923;SDS011;43737;50.632;3.070;2022-07-17T09:31:10;3.92;;;2.38;;
57923;SDS011;43737;50.632;3.070;2022-07-17T09:33:36;3.65;;;2.38;;
57923;SDS011;43737;50.632;3.070;2022-07-17T09:36:06;2.92;;;1.77;;
57923;SDS011;43737;50.632;3.070;2022-07-17T09:38:33;4.85;;;2.30;;
57923;SDS011;43737;50.632;3.070;2022-07-17T09:41:04;5.50;;;2.40;;
57923;SDS011;43737;50.632;3.070;2022-07-17T09:43:50;4.28;;;2.83;;
57923;SDS011;43737;50.632;3.070;2022-07-17T09:48:44;3.25;;;2.33;;
57923;SDS011;43737;50.632;3.070;2022-07-17T09:51:30;3.75;;;2.78;;
57923;SDS011;43737;50.632;3.070;2022-07-17T09:53:58;4.75;;;2.50;;
57923;SDS011;43737;50.632;3.070;2022-07-17T09:56:25;5.53;;;3.35;;
57923;SDS011;43737;50.632;3.070;2022-07-17T09:58:55;3.92;;;3.00;;
57923;SDS011;43737;50.632;3.070;2022-07-17T10:01:25;5.07;;;2.90;;
57923;SDS011;43737;50.632;3.070;2022-07-17T10:03:51;5.85;;;3.28;;
57923;SDS011;43737;50.632;3.070;2022-07-17T10:06:19;4.43;;;3.10;;
57923;SDS011;43737;50.632;3.070;2022-07-17T10:08:45;5.28;;;2.90;;
57923;SDS011;43737;50.632;3.070;2022-07-17T10:11:12;5.00;;;3.08;;
57923;SDS011;43737;50.632;3.070;2022-07-17T10:13:42;6.20;;;3.40;;
57923;SDS011;43737;50.632;3.070;2022-07-17T10:16:10;5.68;;;2.90;;
57923;SDS011;43737;50.632;3.070;2022-07-17T10:18:39;8.00;;;3.67;;
57923;SDS011;43737;50.632;3.070;2022-07-17T10:21:09;5.38;;;3.30;;
57923;SDS011;43737;50.632;3.070;2022-07-17T10:23:36;3.35;;;3.00;;
57923;SDS011;43737;50.632;3.070;2022-07-17T10:26:02;5.63;;;3.45;;
57923;SDS011;43737;50.632;3.070;2022-07-17T10:28:38;4.63;;;3.05;;
57923;SDS011;43737;50.632;3.070;2022-07-17T10:31:04;6.22;;;3.53;;
57923;SDS011;43737;50.632;3.070;2022-07-17T10:33:30;5.18;;;3.30;;
57923;SDS011;43737;50.632;3.070;2022-07-17T10:35:56;4.40;;;3.38;;
57923;SDS011;43737;50.632;3.070;2022-07-17T10:38:24;4.68;;;2.92;;
57923;SDS011;43737;50.632;3.070;2022-07-17T10:41:01;5.10;;;3.08;;
57923;SDS011;43737;50.632;3.070;2022-07-17T10:43:28;4.90;;;3.17;;
57923;SDS011;43737;50.632;3.070;2022-07-17T10:46:05;6.22;;;3.25;;
57923;SDS011;43737;50.632;3.070;2022-07-17T10:48:30;3.97;;;3.28;;
57923;SDS011;43737;50.632;3.070;2022-07-17T10:50:56;6.25;;;3.92;;
57923;SDS011;43737;50.632;3.070;2022-07-17T10:53:24;5.38;;;3.83;;
57923;SDS011;43737;50.632;3.070;2022-07-17T10:58:25;5.30;;;4.10;;
57923;SDS011;43737;50.632;3.070;2022-07-17T11:03:26;4.32;;;3.78;;
57923;SDS011;43737;50.632;3.070;2022-07-17T11:05:53;4.80;;;4.00;;
57923;SDS011;43737;50.632;3.070;2022-07-17T11:08:19;5.15;;;3.80;;
57923;SDS011;43737;50.632;3.070;2022-07-17T11:10:45;4.15;;;3.75;;
57923;SDS011;43737;50.632;3.070;2022-07-17T11:13:13;5.57;;;4.10;;
57923;SDS011;43737;50.632;3.070;2022-07-17T11:15:40;4.45;;;4.05;;
57923;SDS011;43737;50.632;3.070;2022-07-17T11:18:24;6.60;;;4.18;;
57923;SDS011;43737;50.632;3.070;2022-07-17T11:20:52;4.30;;;3.90;;
57923;SDS011;43737;50.632;3.070;2022-07-17T11:23:19;4.97;;;4.05;;
57923;SDS011;43737;50.632;3.070;2022-07-17T11:28:43;4.35;;;3.67;;
57923;SDS011;43737;50.632;3.070;2022-07-17T11:33:48;6.72;;;4.10;;
57923;SDS011;43737;50.632;3.070;2022-07-17T11:36:24;5.63;;;4.20;;
57923;SDS011;43737;50.632;3.070;2022-07-17T11:38:51;6.72;;;4.38;;
57923;SDS011;43737;50.632;3.070;2022-07-17T11:41:18;5.43;;;4.10;;
57923;SDS011;43737;50.632;3.070;2022-07-17T11:43:44;5.22;;;4.18;;
57923;SDS011;43737;50.632;3.070;2022-07-17T11:46:11;4.65;;;4.18;;
57923;SDS011;43737;50.632;3.070;2022-07-17T11:48:40;6.18;;;4.13;;
57923;SDS011;43737;50.632;3.070;2022-07-17T11:51:06;4.40;;;4.00;;
57923;SDS011;43737;50.632;3.070;2022-07-17T11:53:35;6.45;;;4.50;;
57923;SDS011;43737;50.632;3.070;2022-07-17T11:56:02;5.45;;;4.05;;
57923;SDS011;43737;50.632;3.070;2022-07-17T11:58:28;4.60;;;4.20;;
57923;SDS011;43737;50.632;3.070;2022-07-17T12:01:03;5.05;;;4.00;;
57923;SDS011;43737;50.632;3.070;2022-07-17T12:03:29;5.15;;;4.07;;
57923;SDS011;43737;50.632;3.070;2022-07-17T12:05:56;5.10;;;4.15;;
57923;SDS011;43737;50.632;3.070;2022-07-17T12:08:22;4.50;;;4.10;;
57923;SDS011;43737;50.632;3.070;2022-07-17T12:10:58;4.68;;;4.20;;
57923;SDS011;43737;50.632;3.070;2022-07-17T12:13:24;5.13;;;4.20;;
57923;SDS011;43737;50.632;3.070;2022-07-17T12:16:02;4.25;;;3.85;;
57923;SDS011;43737;50.632;3.070;2022-07-17T12:18:28;4.10;;;3.70;;
57923;SDS011;43737;50.632;3.070;2022-07-17T12:20:56;4.45;;;3.85;;
57923;SDS011;43737;50.632;3.070;2022-07-17T12:23:35;4.40;;;4.00;;
57923;SDS011;43737;50.632;3.070;2022-07-17T12:28:31;5.60;;;4.20;;
57923;SDS011;43737;50.632;3.070;2022-07-17T12:30:57;4.28;;;3.90;;
57923;SDS011;43737;50.632;3.070;2022-07-17T12:33:23;5.53;;;4.07;;
57923;SDS011;43737;50.632;3.070;2022-07-17T12:35:49;4.32;;;3.92;;
57923;SDS011;43737;50.632;3.070;2022-07-17T12:38:15;4.40;;;4.00;;
57923;SDS011;43737;50.632;3.070;2022-07-17T12:40:41;5.68;;;3.97;;
57923;SDS011;43737;50.632;3.070;2022-07-17T12:43:10;4.90;;;4.40;;
57923;SDS011;43737;50.632;3.070;2022-07-17T12:45:36;4.70;;;4.18;;
57923;SDS011;43737;50.632;3.070;2022-07-17T12:48:02;5.50;;;4.18;;
57923;SDS011;43737;50.632;3.070;2022-07-17T12:50:28;4.38;;;3.95;;
57923;SDS011;43737;50.632;3.070;2022-07-17T12:52:54;5.35;;;4.15;;
57923;SDS011;43737;50.632;3.070;2022-07-17T12:55:20;4.63;;;4.22;;
57923;SDS011;43737;50.632;3.070;2022-07-17T12:57:46;5.15;;;4.10;;
57923;SDS011;43737;50.632;3.070;2022-07-17T13:00:13;5.25;;;4.75;;
57923;SDS011;43737;50.632;3.070;2022-07-17T13:02:39;5.45;;;4.18;;
57923;SDS011;43737;50.632;3.070;2022-07-17T13:05:05;6.53;;;4.07;;
57923;SDS011;43737;50.632;3.070;2022-07-17T13:07:31;6.57;;;4.45;;
57923;SDS011;43737;50.632;3.070;2022-07-17T13:09:57;4.78;;;4.28;;
57923;SDS011;43737;50.632;3.070;2022-07-17T13:12:23;7.07;;;4.55;;
57923;SDS011;43737;50.632;3.070;2022-07-17T13:14:49;6.47;;;4.40;;
57923;SDS011;43737;50.632;3.070;2022-07-17T13:17:16;4.57;;;4.18;;
57923;SDS011;43737;50.632;3.070;2022-07-17T13:19:42;4.10;;;3.70;;
57923;SDS011;43737;50.632;3.070;2022-07-17T13:22:08;4.80;;;4.00;;
57923;SDS011;43737;50.632;3.070;2022-07-17T13:24:34;4.90;;;4.40;;
57923;SDS011;43737;50.632;3.070;2022-07-17T13:27:00;5.78;;;4.38;;
57923;SDS011;43737;50.632;3.070;2022-07-17T13:29:26;4.85;;;4.05;;
57923;SDS011;43737;50.632;3.070;2022-07-17T13:31:52;4.47;;;4.07;;
57923;SDS011;43737;50.632;3.070;2022-07-17T13:34:19;5.50;;;5.00;;
57923;SDS011;43737;50.632;3.070;2022-07-17T13:36:45;4.65;;;4.10;;
57923;SDS011;43737;50.632;3.070;2022-07-17T13:39:11;5.30;;;4.03;;
57923;SDS011;43737;50.632;3.070;2022-07-17T13:41:37;4.68;;;4.15;;
57923;SDS011;43737;50.632;3.070;2022-07-17T13:44:04;4.90;;;4.25;;
57923;SDS011;43737;50.632;3.070;2022-07-17T13:46:30;5.13;;;4.60;;
57923;SDS011;43737;50.632;3.070;2022-07-17T13:48:56;5.60;;;4.53;;
57923;SDS011;43737;50.632;3.070;2022-07-17T13:51:23;4.97;;;4.20;;
57923;SDS011;43737;50.632;3.070;2022-07-17T13:53:49;4.10;;;3.70;;
57923;SDS011;43737;50.632;3.070;2022-07-17T13:56:15;4.57;;;3.78;;
57923;SDS011;43737;50.632;3.070;2022-07-17T13:58:41;6.70;;;4.15;;
57923;SDS011;43737;50.632;3.070;2022-07-17T14:01:07;4.35;;;4.00;;
57923;SDS011;43737;50.632;3.070;2022-07-17T14:03:33;5.38;;;3.92;;
57923;SDS011;43737;50.632;3.070;2022-07-17T14:05:59;6.50;;;4.18;;
57923;SDS011;43737;50.632;3.070;2022-07-17T14:08:25;7.22;;;4.60;;
57923;SDS011;43737;50.632;3.070;2022-07-17T14:10:51;4.68;;;4.18;;
57923;SDS011;43737;50.632;3.070;2022-07-17T14:13:17;5.38;;;4.40;;
57923;SDS011;43737;50.632;3.070;2022-07-17T14:15:44;5.63;;;4.53;;
57923;SDS011;43737;50.632;3.070;2022-07-17T14:18:10;5.32;;;4.82;;
57923;SDS011;43737;50.632;3.070;2022-07-17T14:20:36;6.03;;;4.18;;
57923;SDS011;43737;50.632;3.070;2022-07-17T14:23:02;5.20;;;4.38;;
57923;SDS011;43737;50.632;3.070;2022-07-17T14:25:28;7.30;;;4.20;;
57923;SDS011;43737;50.632;3.070;2022-07-17T14:27:54;6.13;;;4.97;;
57923;SDS011;43737;50.632;3.070;2022-07-17T14:30:20;4.80;;;4.40;;
57923;SDS011;43737;50.632;3.070;2022-07-17T14:32:46;5.93;;;3.85;;
57923;SDS011;43737;50.632;3.070;2022-07-17T14:35:12;6.32;;;4.72;;
57923;SDS011;43737;50.632;3.070;2022-07-17T14:37:38;5.10;;;4.60;;
57923;SDS011;43737;50.632;3.070;2022-07-17T14:40:04;5.93;;;4.28;;
57923;SDS011;43737;50.632;3.070;2022-07-17T14:42:30;4.82;;;4.00;;
57923;SDS011;43737;50.632;3.070;2022-07-17T14:44:58;5.93;;;4.30;;
57923;SDS011;43737;50.632;3.070;2022-07-17T14:47:25;8.25;;;4.40;;
57923;SDS011;43737;50.632;3.070;2022-07-17T14:49:51;5.32;;;3.90;;
57923;SDS011;43737;50.632;3.070;2022-07-17T14:52:17;5.40;;;4.45;;
57923;SDS011;43737;50.632;3.070;2022-07-17T14:54:43;6.70;;;4.47;;
57923;SDS011;43737;50.632;3.070;2022-07-17T14:57:09;5.38;;;4.18;;
57923;SDS011;43737;50.632;3.070;2022-07-17T14:59:35;11.13;;;4.80;;
57923;SDS011;43737;50.632;3.070;2022-07-17T15:02:02;4.80;;;3.90;;